Wakita, Oklahoma
Current Conditions -  °F | °C
As of 9:55 AM on Friday 28 Nov 2014 (Local Time) from KBKN Reporting Station
Clear Clear  
Wind Chill: 50°   Ceiling: Unl
Heat Index: 50°   Visibility: 10mi
Dew Point: 32°   Wind: 17mph
Humidity: 50%   Direction: 190°S
Pressure: 30.02"   Gusts: NA
Location:  36.88°N, 97.92°W
Report Text: KBKN 281555Z AUTO 19015KT 10SM CLR 10/00 A3002 RMK AO2
Loading
Personal Weather Stations






























Interactive Weather Map New forecast layout! Learn more

10-Day Weather Forecast

Advertisements
Track Severe Weather on mobile